createdAt,value
2019-03-08T00:00:30.246Z,71.54
2019-03-08T00:02:58.143Z,71.00
2019-03-08T00:05:26.041Z,71.67
2019-03-08T00:07:53.960Z,71.01
2019-03-08T00:10:21.835Z,71.32
2019-03-08T00:12:49.714Z,71.59
2019-03-08T00:15:17.625Z,71.40
2019-03-08T00:17:45.572Z,71.45
2019-03-08T00:20:15.408Z,72.24
2019-03-08T00:22:43.320Z,72.11
2019-03-08T00:25:12.000Z,72.38
2019-03-08T00:27:39.989Z,71.72
2019-03-08T00:30:08.572Z,71.84
2019-03-08T00:32:36.475Z,71.38
2019-03-08T00:35:04.380Z,71.51
2019-03-08T00:37:32.273Z,70.93
2019-03-08T00:40:00.302Z,70.77
2019-03-08T00:42:28.081Z,69.62
2019-03-08T00:44:55.976Z,69.88
2019-03-08T00:47:23.873Z,69.59
2019-03-08T00:49:52.744Z,69.72
2019-03-08T00:52:20.647Z,69.18
2019-03-08T00:54:48.566Z,68.88
2019-03-08T00:57:17.461Z,68.57
2019-03-08T00:59:45.376Z,68.67
2019-03-08T01:02:13.244Z,66.95
2019-03-08T01:04:42.022Z,66.24
2019-03-08T01:07:09.952Z,65.70
2019-03-08T01:09:37.851Z,65.41
2019-03-08T01:12:05.743Z,64.65
2019-03-08T01:14:33.648Z,63.59
2019-03-08T01:17:02.473Z,63.93
2019-03-08T01:19:30.385Z,64.20
2019-03-08T01:21:58.275Z,64.19
2019-03-08T01:24:26.201Z,64.11
2019-03-08T01:26:54.097Z,64.07
2019-03-08T01:29:21.984Z,64.40
2019-03-08T01:31:49.876Z,64.15
2019-03-08T01:34:17.768Z,63.91
2019-03-08T01:36:45.667Z,64.30
2019-03-08T01:39:13.563Z,64.42
2019-03-08T01:41:41.463Z,64.49
2019-03-08T01:44:09.361Z,64.78
2019-03-08T01:46:37.259Z,63.73
2019-03-08T01:49:05.139Z,63.51
2019-03-08T01:51:33.024Z,63.70
2019-03-08T01:54:00.918Z,63.83
2019-03-08T01:56:28.829Z,64.12
2019-03-08T01:58:57.312Z,63.91
2019-03-08T02:01:25.202Z,64.26
2019-03-08T02:03:53.127Z,64.16
2019-03-08T02:06:21.024Z,63.68
2019-03-08T02:08:48.902Z,63.75
2019-03-08T02:11:16.791Z,63.81
2019-03-08T02:13:44.684Z,64.09
2019-03-08T02:16:12.573Z,63.93
2019-03-08T02:18:40.477Z,64.46
2019-03-08T02:21:08.387Z,64.71
2019-03-08T02:23:37.237Z,64.72
2019-03-08T02:26:05.298Z,64.71
2019-03-08T02:28:33.198Z,64.92
2019-03-08T02:31:01.098Z,64.98
2019-03-08T02:33:28.993Z,64.53
2019-03-08T02:35:56.892Z,64.43
2019-03-08T02:38:24.793Z,63.76
2019-03-08T02:40:52.675Z,63.78
2019-03-08T02:43:20.572Z,63.92
2019-03-08T02:45:48.484Z,65.07
2019-03-08T02:48:16.392Z,66.30
2019-03-08T02:50:44.282Z,66.41
2019-03-08T02:53:13.165Z,67.58
2019-03-08T02:55:41.061Z,67.29
2019-03-08T02:58:08.951Z,67.89
2019-03-08T03:00:37.854Z,66.33
2019-03-08T03:03:05.761Z,65.85
2019-03-08T03:05:33.659Z,65.82
2019-03-08T03:08:01.568Z,66.53
2019-03-08T03:10:29.467Z,65.08
2019-03-08T03:12:57.357Z,65.58
2019-03-08T03:15:25.259Z,66.66
2019-03-08T03:17:53.176Z,66.91
2019-03-08T03:20:21.084Z,66.05
2019-03-08T03:22:48.988Z,66.78
2019-03-08T03:25:16.889Z,67.23
2019-03-08T03:27:44.779Z,67.65
2019-03-08T03:30:16.281Z,66.86
2019-03-08T03:32:44.172Z,67.19
2019-03-08T03:35:12.089Z,67.59
2019-03-08T03:37:40.006Z,66.96
2019-03-08T03:40:07.912Z,67.47
2019-03-08T03:42:35.818Z,68.06
2019-03-08T03:45:03.728Z,69.11
2019-03-08T03:47:31.637Z,68.57
2019-03-08T03:49:59.519Z,68.33
2019-03-08T03:52:27.437Z,68.76
2019-03-08T03:54:56.253Z,69.19
2019-03-08T03:57:24.148Z,69.35
2019-03-08T03:59:52.097Z,68.94
2019-03-08T04:02:20.037Z,68.61
2019-03-08T04:04:48.008Z,69.18
2019-03-08T04:07:15.981Z,69.68
2019-03-08T04:09:43.863Z,69.93
2019-03-08T04:12:11.760Z,69.96
2019-03-08T04:14:39.653Z,69.64
2019-03-08T04:17:07.556Z,69.77
2019-03-08T04:19:35.442Z,70.57
2019-03-08T04:22:03.339Z,70.41
2019-03-08T04:24:31.233Z,70.25
2019-03-08T04:26:59.123Z,68.45
2019-03-08T04:29:27.905Z,68.69
2019-03-08T04:31:55.802Z,68.25
2019-03-08T04:34:24.597Z,67.41
2019-03-08T04:36:52.497Z,68.20
2019-03-08T04:39:20.385Z,66.48
2019-03-08T04:41:48.360Z,67.92
2019-03-08T04:44:16.242Z,68.21
2019-03-08T04:46:44.172Z,69.05
2019-03-08T04:49:12.975Z,67.86
2019-03-08T04:51:40.875Z,67.78
2019-03-08T04:54:08.763Z,67.49
2019-03-08T04:56:36.670Z,68.14
2019-03-08T04:59:04.595Z,67.64
2019-03-08T05:01:32.461Z,67.27
2019-03-08T05:04:00.370Z,67.70
2019-03-08T05:06:28.263Z,67.83
2019-03-08T05:08:56.165Z,66.88
2019-03-08T05:11:24.091Z,67.01
2019-03-08T05:13:51.991Z,67.10
2019-03-08T05:16:19.900Z,66.80
2019-03-08T05:18:48.767Z,65.81
2019-03-08T05:21:16.666Z,66.41
2019-03-08T05:23:44.559Z,67.38
2019-03-08T05:26:12.473Z,67.82
2019-03-08T05:28:40.368Z,68.56
2019-03-08T05:31:08.303Z,68.08
2019-03-08T05:33:36.192Z,67.77
2019-03-08T05:36:05.147Z,67.93
2019-03-08T05:38:33.047Z,67.47
2019-03-08T05:41:00.927Z,67.12
2019-03-08T05:43:28.876Z,67.80
2019-03-08T05:45:56.768Z,68.23
2019-03-08T05:48:26.391Z,68.62
2019-03-08T05:50:52.615Z,67.81
2019-03-08T05:53:20.516Z,68.13
2019-03-08T05:55:48.427Z,68.78
2019-03-08T05:58:16.344Z,67.49
2019-03-08T06:00:44.236Z,68.73
2019-03-08T06:03:12.152Z,67.98
2019-03-08T06:05:40.999Z,68.08
2019-03-08T06:08:08.891Z,68.87
2019-03-08T06:10:36.783Z,69.39
2019-03-08T06:13:04.689Z,69.36
2019-03-08T06:15:32.597Z,69.01
2019-03-08T06:18:00.560Z,68.71
2019-03-08T06:20:28.427Z,69.64
2019-03-08T06:22:56.324Z,69.27
2019-03-08T06:25:24.231Z,68.91
2019-03-08T06:27:52.196Z,69.27
2019-03-08T06:30:20.075Z,69.45
2019-03-08T06:32:48.012Z,69.25
2019-03-08T06:35:15.916Z,69.43
2019-03-08T06:37:43.866Z,69.42
2019-03-08T06:42:46.825Z,69.18
2019-03-08T06:45:16.547Z,69.99
2019-03-08T06:47:42.651Z,69.62
2019-03-08T06:50:13.277Z,69.78
2019-03-08T06:52:41.164Z,70.43
2019-03-08T06:55:09.079Z,71.47
2019-03-08T06:57:36.979Z,71.82
2019-03-08T07:00:16.566Z,71.62
2019-03-08T07:02:44.496Z,72.15
2019-03-08T07:05:12.412Z,71.17
2019-03-08T07:07:41.243Z,70.44
2019-03-08T07:10:09.128Z,69.25
2019-03-08T07:12:41.331Z,68.62
2019-03-08T07:15:10.546Z,69.30
2019-03-08T07:17:38.464Z,69.55
2019-03-08T07:23:02.368Z,69.36
2019-03-08T07:25:36.057Z,69.97
2019-03-08T07:28:10.461Z,68.99
2019-03-08T07:30:40.764Z,68.94
2019-03-08T07:36:18.241Z,69.65
2019-03-08T07:38:46.140Z,68.88
2019-03-08T07:41:20.469Z,69.34
2019-03-08T07:43:53.871Z,69.34
2019-03-08T07:46:21.817Z,68.95
2019-03-08T07:48:50.510Z,69.25
2019-03-08T07:51:23.960Z,67.95
2019-03-08T07:53:55.384Z,67.98
2019-03-08T07:56:28.840Z,67.39
2019-03-08T07:59:02.263Z,68.48
2019-03-08T08:01:35.690Z,67.41
2019-03-08T08:04:09.096Z,67.64
2019-03-08T08:06:40.491Z,67.20
2019-03-08T08:12:07.057Z,68.21
2019-03-08T08:14:39.848Z,67.70
2019-03-08T08:17:05.370Z,67.32
2019-03-08T08:19:38.260Z,67.01
2019-03-08T08:22:06.174Z,66.13
2019-03-08T08:24:48.943Z,66.62
2019-03-08T08:27:16.842Z,66.70
2019-03-08T08:29:44.749Z,66.03
2019-03-08T08:32:18.171Z,66.34
2019-03-08T08:34:46.850Z,66.18
2019-03-08T08:37:15.734Z,66.75
2019-03-08T08:40:00.417Z,65.16
2019-03-08T08:42:34.021Z,65.75
2019-03-08T08:45:04.780Z,66.98
2019-03-08T08:47:33.578Z,65.85
2019-03-08T08:50:03.426Z,65.67
2019-03-08T08:52:35.284Z,66.57
2019-03-08T08:55:03.181Z,66.75
2019-03-08T08:57:32.867Z,65.43
2019-03-08T09:00:03.064Z,65.12
2019-03-08T09:02:33.743Z,65.84
2019-03-08T09:07:57.143Z,65.51
2019-03-08T09:10:26.031Z,65.95
2019-03-08T09:15:52.893Z,66.51
2019-03-08T09:18:23.264Z,65.00
2019-03-08T09:20:54.658Z,66.06
2019-03-08T09:23:22.566Z,63.92
2019-03-08T09:31:43.638Z,62.50
2019-03-08T09:37:12.828Z,63.15
2019-03-08T09:39:44.107Z,63.37
2019-03-08T09:42:13.780Z,64.22
2019-03-08T09:44:48.055Z,63.85
2019-03-08T09:47:25.853Z,64.75
2019-03-08T09:52:49.026Z,62.57
2019-03-08T09:55:28.600Z,62.66
2019-03-08T09:58:09.149Z,61.44
2019-03-08T10:00:39.612Z,60.50
2019-03-08T10:03:08.383Z,59.48
2019-03-08T10:05:46.220Z,60.73
2019-03-08T10:08:14.928Z,59.32
2019-03-08T10:13:38.666Z,59.16
2019-03-08T10:16:07.014Z,57.31
2019-03-08T10:18:35.858Z,54.72
2019-03-08T10:21:04.576Z,53.29
2019-03-08T10:23:32.469Z,52.81
2019-03-08T10:26:02.364Z,53.01
2019-03-08T10:28:32.238Z,54.03
2019-03-08T10:31:10.952Z,54.24
2019-03-08T10:36:33.675Z,51.25
2019-03-08T10:39:02.347Z,51.81
2019-03-08T10:41:47.935Z,52.02
2019-03-08T10:44:19.821Z,50.79
2019-03-08T10:46:48.473Z,50.40
2019-03-08T10:49:27.072Z,51.10
2019-03-08T10:52:08.092Z,49.14
2019-03-08T10:54:45.653Z,49.15
2019-03-08T10:57:13.552Z,50.62
2019-03-08T10:59:50.985Z,51.55
2019-03-08T11:05:15.283Z,53.55
2019-03-08T11:07:46.156Z,51.61
2019-03-08T11:13:09.976Z,53.09
2019-03-08T11:18:36.483Z,51.95
2019-03-08T11:45:10.415Z,55.74
2019-03-08T11:47:42.169Z,55.53
2019-03-08T11:53:14.661Z,56.51
2019-03-08T11:55:44.323Z,57.82
2019-03-08T12:01:07.131Z,56.08
2019-03-08T12:03:38.055Z,56.37
2019-03-08T12:06:08.245Z,55.96
2019-03-08T12:08:38.024Z,56.03
2019-03-08T12:11:22.225Z,56.22
2019-03-08T12:13:51.918Z,55.99
2019-03-08T12:16:26.433Z,55.80
2019-03-08T12:18:54.322Z,56.06
2019-03-08T12:21:23.003Z,55.64
2019-03-08T12:23:56.684Z,55.69
2019-03-08T12:29:23.451Z,55.93
2019-03-08T12:37:50.861Z,54.50
2019-03-08T12:40:21.240Z,54.81
2019-03-08T12:42:52.907Z,51.20
2019-03-08T12:45:25.580Z,50.88
2019-03-08T12:47:58.831Z,50.43
2019-03-08T12:53:25.315Z,52.33
2019-03-08T12:58:50.098Z,54.05
2019-03-08T13:01:18.103Z,55.85
2019-03-08T13:03:56.696Z,54.79
2019-03-08T13:06:27.971Z,54.83
2019-03-08T13:08:56.673Z,53.02
2019-03-08T13:11:32.872Z,51.38
2019-03-08T13:13:53.410Z,52.08
2019-03-08T13:16:21.330Z,52.49
2019-03-08T13:18:49.255Z,52.15
2019-03-08T13:21:17.183Z,54.88
2019-03-08T13:23:45.095Z,54.26
2019-03-08T13:26:13.000Z,53.73
2019-03-08T13:28:40.912Z,54.28
2019-03-08T13:31:08.807Z,53.50
2019-03-08T13:33:36.720Z,53.79
2019-03-08T13:36:04.628Z,55.61
2019-03-08T13:38:32.514Z,53.77
2019-03-08T13:41:01.417Z,54.82
2019-03-08T13:43:29.327Z,55.42
2019-03-08T13:45:58.203Z,55.36
2019-03-08T13:48:26.094Z,55.93
2019-03-08T13:50:54.019Z,54.80
2019-03-08T13:53:21.916Z,54.05
2019-03-08T13:55:49.828Z,53.43
2019-03-08T13:58:17.780Z,49.25
2019-03-08T14:00:45.683Z,47.33
2019-03-08T14:03:14.515Z,46.59
2019-03-08T14:05:43.337Z,48.56
2019-03-08T14:08:11.261Z,47.43
2019-03-08T14:10:39.191Z,48.47
2019-03-08T14:13:08.068Z,49.16
2019-03-08T14:15:36.004Z,53.12
2019-03-08T14:18:03.895Z,55.84
2019-03-08T14:20:31.800Z,55.12
2019-03-08T14:23:00.675Z,54.10
2019-03-08T14:25:28.574Z,50.30
2019-03-08T14:27:56.498Z,49.56
2019-03-08T14:30:26.764Z,52.81
2019-03-08T14:32:53.747Z,54.43
2019-03-08T14:35:21.660Z,53.89
2019-03-08T14:37:52.362Z,50.72
2019-03-08T14:43:16.982Z,58.27
2019-03-08T14:45:44.530Z,57.40
2019-03-08T14:48:12.236Z,54.55
2019-03-08T14:50:40.184Z,50.59
2019-03-08T14:53:08.332Z,51.81
2019-03-08T14:55:36.537Z,52.16
2019-03-08T14:58:04.435Z,50.49
2019-03-08T15:00:32.341Z,50.06
2019-03-08T15:03:00.283Z,49.69
2019-03-08T15:05:28.181Z,52.15
2019-03-08T15:07:56.103Z,52.30
2019-03-08T15:10:25.036Z,53.52
2019-03-08T15:12:53.220Z,52.24
2019-03-08T15:15:21.810Z,55.46
2019-03-08T15:17:53.391Z,53.46
2019-03-08T15:20:18.561Z,52.86
2019-03-08T15:22:46.469Z,51.56
2019-03-08T15:25:14.383Z,51.26
2019-03-08T15:27:42.288Z,51.08
2019-03-08T15:30:12.970Z,52.58
2019-03-08T15:32:40.903Z,53.69
2019-03-08T15:35:09.768Z,55.06
2019-03-08T15:37:44.215Z,56.35
2019-03-08T15:40:09.144Z,57.35
2019-03-08T15:42:38.071Z,57.11
2019-03-08T15:45:07.212Z,56.65
2019-03-08T15:47:36.142Z,57.82
2019-03-08T15:50:04.581Z,58.82
2019-03-08T15:52:30.843Z,59.37
2019-03-08T15:54:58.743Z,59.15
2019-03-08T15:57:27.591Z,59.93
2019-03-08T15:59:55.481Z,61.40
2019-03-08T16:02:23.390Z,60.58
2019-03-08T16:04:51.586Z,60.26
2019-03-08T16:07:23.072Z,61.75
2019-03-08T16:09:48.000Z,61.78
2019-03-08T16:12:15.938Z,62.15
2019-03-08T16:14:43.814Z,62.76
2019-03-08T16:17:11.713Z,63.53
2019-03-08T16:19:39.629Z,64.47
2019-03-08T16:22:08.723Z,65.36
2019-03-08T16:24:35.459Z,65.61
2019-03-08T16:27:03.887Z,65.52
2019-03-08T16:29:31.278Z,66.00
2019-03-08T16:31:59.972Z,66.86
2019-03-08T16:34:27.124Z,66.87
2019-03-08T16:37:07.831Z,67.54
2019-03-08T16:42:34.470Z,68.29
2019-03-08T16:45:03.636Z,69.42
2019-03-08T16:47:33.977Z,69.90
2019-03-08T16:50:09.256Z,69.47
2019-03-08T16:52:56.781Z,69.21
2019-03-08T16:55:27.479Z,70.13
2019-03-08T16:57:56.164Z,70.72
2019-03-08T17:00:24.533Z,70.72
2019-03-08T17:05:50.844Z,71.86
2019-03-08T17:08:22.124Z,72.01
2019-03-08T17:10:50.062Z,71.78
2019-03-08T17:13:19.756Z,72.87
2019-03-08T17:15:54.234Z,73.51
2019-03-08T17:18:27.071Z,73.91
2019-03-08T17:20:56.462Z,74.57
2019-03-08T17:23:29.170Z,74.75
2019-03-08T17:26:02.567Z,75.12
2019-03-08T17:28:36.085Z,75.42
2019-03-08T17:31:07.819Z,75.55
2019-03-08T17:33:40.623Z,75.44
2019-03-08T17:36:10.405Z,76.07
2019-03-08T17:38:39.194Z,76.39
2019-03-08T17:41:12.899Z,76.32
2019-03-08T17:43:44.260Z,76.95
2019-03-08T17:46:15.090Z,77.38
2019-03-08T17:48:43.906Z,77.63
2019-03-08T17:51:27.606Z,77.04
2019-03-08T17:53:57.293Z,77.63
2019-03-08T17:56:25.554Z,78.81
2019-03-08T17:59:13.177Z,79.13
2019-03-08T18:01:55.884Z,78.38
2019-03-08T18:04:24.577Z,78.07
2019-03-08T18:06:53.215Z,78.49
2019-03-08T18:09:31.007Z,77.78
2019-03-08T18:12:00.305Z,78.35
2019-03-08T18:14:30.569Z,77.84
2019-03-08T18:17:03.995Z,77.62
2019-03-08T18:19:34.117Z,77.64
2019-03-08T18:22:04.841Z,77.73
2019-03-08T18:24:38.230Z,77.69
2019-03-08T18:27:09.915Z,77.52
2019-03-08T18:32:36.523Z,78.09
2019-03-08T18:35:06.795Z,78.04
2019-03-08T18:37:35.492Z,78.77
2019-03-08T18:40:04.377Z,79.80
2019-03-08T18:42:47.046Z,79.13
2019-03-08T18:45:29.788Z,79.06
2019-03-08T18:47:58.483Z,79.54
2019-03-08T18:50:31.916Z,79.49
2019-03-08T18:53:01.648Z,79.45
2019-03-08T19:01:25.536Z,79.45
2019-03-08T19:03:56.807Z,79.89
2019-03-08T19:06:39.691Z,79.82
2019-03-08T19:09:07.681Z,79.77
2019-03-08T19:11:50.487Z,80.14
2019-03-08T19:14:23.732Z,80.66
2019-03-08T19:17:08.435Z,80.48
2019-03-08T19:19:41.801Z,81.12
2019-03-08T19:22:12.173Z,80.60
2019-03-08T19:24:45.473Z,81.03
2019-03-08T19:27:14.127Z,81.18
2019-03-08T19:29:46.838Z,81.71
2019-03-08T19:32:16.534Z,81.41
2019-03-08T19:34:54.328Z,81.17
2019-03-08T19:43:21.489Z,80.97
2019-03-08T19:45:49.489Z,81.16
2019-03-08T19:48:20.289Z,81.64
2019-03-08T19:50:50.101Z,81.48
2019-03-08T19:53:22.331Z,81.16
2019-03-08T19:55:56.596Z,81.17
2019-03-08T19:58:35.251Z,81.26
2019-03-08T20:01:03.158Z,81.13
2019-03-08T20:06:42.098Z,82.49
2019-03-08T20:12:06.802Z,82.51
2019-03-08T20:17:40.317Z,81.92
2019-03-08T20:20:11.062Z,82.36
2019-03-08T20:22:42.619Z,82.03
2019-03-08T20:25:10.878Z,81.97
2019-03-08T20:27:41.108Z,80.76
2019-03-08T20:30:14.607Z,80.42
2019-03-08T20:32:42.501Z,80.68
2019-03-08T20:35:10.414Z,81.13
2019-03-08T20:37:42.111Z,80.92
2019-03-08T20:43:04.022Z,80.00
2019-03-08T20:45:31.959Z,80.14
2019-03-08T20:47:59.820Z,80.00
2019-03-08T20:50:27.725Z,79.59
2019-03-08T20:52:55.632Z,79.40
2019-03-08T20:55:23.638Z,78.92
2019-03-08T20:57:51.534Z,79.46
2019-03-08T21:00:19.477Z,80.10
2019-03-08T21:02:48.255Z,80.44
2019-03-08T21:05:16.147Z,80.81
2019-03-08T21:07:44.046Z,81.42
2019-03-08T21:10:11.942Z,81.68
2019-03-08T21:12:39.843Z,81.76
2019-03-08T21:15:07.737Z,80.80
2019-03-08T21:17:35.623Z,80.49
2019-03-08T21:20:03.595Z,80.19
2019-03-08T21:22:31.436Z,80.10
2019-03-08T21:24:59.962Z,80.20
2019-03-08T21:27:27.212Z,78.53
2019-03-08T21:29:55.128Z,78.63
2019-03-08T21:32:23.086Z,78.39
2019-03-08T21:34:51.917Z,78.39
2019-03-08T21:37:20.857Z,78.15
2019-03-08T21:39:48.873Z,78.04
2019-03-08T21:42:16.761Z,78.44
2019-03-08T21:44:45.527Z,79.10
2019-03-08T21:47:13.417Z,78.68
2019-03-08T21:49:41.395Z,78.83
2019-03-08T21:52:09.272Z,79.02
2019-03-08T21:54:37.166Z,79.11
2019-03-08T21:57:05.063Z,78.30
2019-03-08T21:59:36.196Z,78.18
2019-03-08T22:02:04.064Z,78.13
2019-03-08T22:04:31.964Z,78.29
2019-03-08T22:06:59.982Z,79.30
2019-03-08T22:09:33.320Z,80.02
2019-03-08T22:12:01.203Z,81.05
2019-03-08T22:14:29.124Z,81.50
2019-03-08T22:16:57.035Z,82.33
2019-03-08T22:19:24.970Z,83.15
2019-03-08T22:21:52.993Z,82.84
2019-03-08T22:24:21.848Z,81.34
2019-03-08T22:26:49.772Z,81.36
2019-03-08T22:29:17.688Z,81.30
2019-03-08T22:31:45.600Z,81.12
2019-03-08T22:34:13.499Z,80.14
2019-03-08T22:36:41.451Z,79.72
2019-03-08T22:39:09.386Z,80.58
2019-03-08T22:41:37.269Z,80.33
2019-03-08T22:44:05.160Z,79.88
2019-03-08T22:46:33.055Z,79.36
2019-03-08T22:49:00.951Z,79.19
2019-03-08T22:51:29.901Z,79.28
2019-03-08T22:53:57.835Z,79.30
2019-03-08T22:56:25.717Z,79.40
2019-03-08T22:58:53.608Z,78.48
2019-03-08T23:01:21.515Z,77.81
2019-03-08T23:03:49.419Z,77.92
2019-03-08T23:06:17.353Z,77.68
2019-03-08T23:08:45.330Z,77.71
2019-03-08T23:11:13.200Z,77.79
2019-03-08T23:13:41.089Z,77.61
2019-03-08T23:16:08.991Z,77.21
2019-03-08T23:18:36.882Z,77.35
2019-03-08T23:21:04.800Z,77.56
2019-03-08T23:23:32.743Z,77.62
2019-03-08T23:26:00.640Z,77.32
2019-03-08T23:28:34.390Z,77.16
2019-03-08T23:31:07.862Z,77.12
2019-03-08T23:33:35.767Z,76.85
2019-03-08T23:36:03.663Z,76.34
2019-03-08T23:38:31.555Z,76.72
2019-03-08T23:40:59.466Z,76.84
2019-03-08T23:43:27.481Z,76.96
2019-03-08T23:45:55.355Z,76.95
2019-03-08T23:48:23.279Z,76.71
2019-03-08T23:50:51.168Z,77.29
2019-03-08T23:53:19.076Z,77.37
2019-03-08T23:55:47.016Z,77.39
2019-03-08T23:58:14.922Z,77.76
